createdAt,value
2019-03-16T00:00:11.157Z,6.00
2019-03-16T00:05:14.932Z,6.00
2019-03-16T00:10:19.120Z,6.00
2019-03-16T00:15:22.840Z,6.00
2019-03-16T00:20:26.691Z,5.90
2019-03-16T00:25:30.780Z,5.90
2019-03-16T00:30:34.559Z,5.90
2019-03-16T00:35:38.553Z,5.90
2019-03-16T00:40:42.683Z,5.80
2019-03-16T00:45:47.456Z,5.80
2019-03-16T00:50:51.278Z,5.80
2019-03-16T00:55:55.447Z,6.00
2019-03-16T01:00:59.555Z,6.10
2019-03-16T01:06:03.283Z,5.90
2019-03-16T01:11:07.175Z,5.90
2019-03-16T01:16:11.084Z,5.90
2019-03-16T01:21:15.054Z,5.70
2019-03-16T01:26:18.795Z,5.70
2019-03-16T01:31:22.599Z,5.70
2019-03-16T01:36:26.785Z,5.60
2019-03-16T01:41:30.538Z,5.50
2019-03-16T01:46:34.843Z,5.50
2019-03-16T01:51:38.559Z,5.50
2019-03-16T01:56:42.358Z,5.40
2019-03-16T02:01:49.204Z,5.30
2019-03-16T02:06:52.073Z,5.30
2019-03-16T02:11:55.754Z,5.20
2019-03-16T02:16:59.444Z,5.20
2019-03-16T02:22:03.256Z,5.20
2019-03-16T02:27:06.960Z,5.20
2019-03-16T02:32:10.679Z,5.10
2019-03-16T02:37:14.396Z,5.00
2019-03-16T02:42:18.179Z,4.90
2019-03-16T02:47:21.868Z,5.00
2019-03-16T02:52:25.568Z,5.00
2019-03-16T02:57:29.273Z,4.90
2019-03-16T03:02:33.001Z,4.90
2019-03-16T03:07:36.840Z,4.90
2019-03-16T03:12:40.564Z,5.00
2019-03-16T03:17:44.256Z,5.10
2019-03-16T03:22:48.039Z,5.00
2019-03-16T03:27:51.969Z,5.10
2019-03-16T03:32:55.681Z,4.90
2019-03-16T03:37:59.440Z,4.70
2019-03-16T03:43:03.141Z,4.60
2019-03-16T03:48:06.844Z,4.50
2019-03-16T03:53:10.541Z,4.40
2019-03-16T03:58:14.238Z,4.40
2019-03-16T04:03:18.102Z,4.50
2019-03-16T04:08:21.819Z,4.50
2019-03-16T04:13:25.613Z,4.40
2019-03-16T04:18:29.371Z,4.40
2019-03-16T04:23:33.163Z,4.30
2019-03-16T04:28:36.855Z,4.20
2019-03-16T04:33:40.559Z,4.20
2019-03-16T04:38:44.251Z,4.20
2019-03-16T04:43:47.955Z,4.20
2019-03-16T04:48:51.655Z,4.20
2019-03-16T04:53:55.363Z,4.10
2019-03-16T04:59:00.119Z,4.10
2019-03-16T05:04:03.907Z,4.10
2019-03-16T05:09:08.255Z,4.20
2019-03-16T05:14:12.007Z,3.60
2019-03-16T05:19:15.804Z,4.20
2019-03-16T05:24:19.520Z,4.10
2019-03-16T05:29:23.202Z,4.10
2019-03-16T05:34:26.925Z,4.10
2019-03-16T05:39:30.615Z,4.20
2019-03-16T05:44:34.418Z,4.30
2019-03-16T05:49:38.112Z,4.30
2019-03-16T05:54:42.068Z,4.40
2019-03-16T05:59:45.854Z,4.50
2019-03-16T06:04:49.574Z,4.60
2019-03-16T06:09:53.278Z,4.80
2019-03-16T06:14:57.007Z,4.90
2019-03-16T06:20:01.101Z,5.50
2019-03-16T06:25:05.238Z,5.80
2019-03-16T06:30:09.086Z,5.80
2019-03-16T06:35:24.015Z,5.80
2019-03-16T06:40:18.219Z,6.10
2019-03-16T06:45:21.923Z,5.90
2019-03-16T06:50:25.647Z,6.00
2019-03-16T06:55:30.390Z,6.10
2019-03-16T07:00:34.087Z,6.30
2019-03-16T07:05:39.002Z,6.40
2019-03-16T07:10:43.930Z,6.40
2019-03-16T07:15:47.723Z,6.20
2019-03-16T07:20:51.499Z,6.30
2019-03-16T07:25:55.505Z,6.30
2019-03-16T07:31:00.527Z,6.50
2019-03-16T07:36:04.667Z,6.60
2019-03-16T07:41:08.563Z,6.70
2019-03-16T07:46:12.255Z,7.00
2019-03-16T07:51:16.015Z,7.00
2019-03-16T07:56:19.948Z,6.80
2019-03-16T08:01:23.681Z,7.10
2019-03-16T08:06:27.413Z,7.20
2019-03-16T08:11:31.124Z,7.10
2019-03-16T08:16:35.102Z,7.00
2019-03-16T08:21:38.800Z,7.10
2019-03-16T08:26:42.498Z,7.20
2019-03-16T08:31:46.460Z,7.40
2019-03-16T08:36:50.190Z,7.50
2019-03-16T08:41:53.883Z,7.40
2019-03-16T08:46:57.599Z,7.50
2019-03-16T08:52:02.291Z,7.70
2019-03-16T08:57:06.059Z,7.50
2019-03-16T09:02:09.825Z,7.50
2019-03-16T09:07:13.627Z,7.60
2019-03-16T09:12:17.343Z,7.50
2019-03-16T09:17:21.079Z,7.50
2019-03-16T09:22:24.772Z,7.50
2019-03-16T09:27:31.462Z,7.10
2019-03-16T09:32:34.031Z,7.70
2019-03-16T09:37:37.851Z,7.80
2019-03-16T09:42:41.562Z,7.90
2019-03-16T09:47:45.255Z,7.90
2019-03-16T09:52:49.068Z,7.90
2019-03-16T09:57:53.871Z,8.10
2019-03-16T10:02:57.590Z,8.00
2019-03-16T10:08:01.299Z,8.40
2019-03-16T10:13:05.099Z,8.70
2019-03-16T10:18:08.873Z,8.70
2019-03-16T10:23:12.619Z,8.70
2019-03-16T10:28:16.406Z,8.50
2019-03-16T10:33:20.159Z,8.40
2019-03-16T10:38:24.179Z,8.50
2019-03-16T10:43:27.870Z,8.40
2019-03-16T10:48:31.995Z,8.40
2019-03-16T10:53:35.722Z,8.30
2019-03-16T10:58:39.504Z,8.30
2019-03-16T11:03:43.307Z,8.50
2019-03-16T11:08:47.091Z,8.90
2019-03-16T11:13:51.656Z,9.00
2019-03-16T11:18:55.467Z,9.00
2019-03-16T11:23:59.166Z,9.00
2019-03-16T11:29:08.936Z,8.60
2019-03-16T11:34:08.323Z,8.50
2019-03-16T11:39:12.143Z,8.50
2019-03-16T11:44:15.839Z,8.60
2019-03-16T11:49:19.535Z,8.70
2019-03-16T11:54:23.249Z,8.70
2019-03-16T11:59:26.976Z,8.70
2019-03-16T12:04:30.927Z,8.90
2019-03-16T12:09:34.630Z,8.90
2019-03-16T12:14:38.398Z,8.70
2019-03-16T12:19:42.090Z,8.50
2019-03-16T12:24:46.043Z,8.50
2019-03-16T12:29:49.743Z,8.70
2019-03-16T12:34:53.482Z,8.70
2019-03-16T12:39:57.170Z,8.60
2019-03-16T12:45:00.875Z,8.50
2019-03-16T12:50:05.311Z,8.50
2019-03-16T12:55:09.123Z,8.60
2019-03-16T13:00:13.310Z,8.50
2019-03-16T13:05:17.183Z,8.30
2019-03-16T13:10:21.301Z,8.30
2019-03-16T13:15:25.419Z,7.90
2019-03-16T13:20:29.276Z,7.20
2019-03-16T13:25:32.983Z,6.80
2019-03-16T13:30:36.777Z,6.70
2019-03-16T13:35:40.784Z,6.70
2019-03-16T13:40:44.603Z,6.80
2019-03-16T13:45:48.459Z,6.70
2019-03-16T13:50:52.203Z,6.40
2019-03-16T13:55:56.010Z,6.30
2019-03-16T14:00:59.744Z,6.20
2019-03-16T14:06:03.474Z,6.10
2019-03-16T14:11:07.184Z,6.20
2019-03-16T14:16:11.234Z,6.00
2019-03-16T14:21:14.951Z,5.80
2019-03-16T14:26:18.657Z,5.60
2019-03-16T14:31:22.441Z,5.60
2019-03-16T14:36:26.235Z,5.50
2019-03-16T14:41:30.280Z,5.50
2019-03-16T14:46:34.307Z,5.40
2019-03-16T14:51:38.103Z,5.50
2019-03-16T14:56:41.886Z,5.50
2019-03-16T15:01:45.663Z,5.50
2019-03-16T15:06:49.382Z,5.50
2019-03-16T15:11:53.296Z,5.50
2019-03-16T15:16:57.147Z,5.50
2019-03-16T15:22:00.899Z,5.50
2019-03-16T15:27:04.598Z,5.40
2019-03-16T15:32:08.427Z,5.20
2019-03-16T15:37:12.134Z,5.20
2019-03-16T15:42:15.947Z,5.10
2019-03-16T15:47:20.074Z,5.20
2019-03-16T15:52:23.915Z,5.20
2019-03-16T15:57:27.659Z,5.20
2019-03-16T16:02:31.467Z,5.10
2019-03-16T16:07:35.441Z,5.00
2019-03-16T16:12:39.367Z,5.00
2019-03-16T16:17:43.436Z,4.90
2019-03-16T16:22:47.376Z,4.90
2019-03-16T16:27:51.072Z,4.90
2019-03-16T16:32:55.151Z,4.80
2019-03-16T16:37:59.102Z,4.80
2019-03-16T16:43:03.083Z,4.70
2019-03-16T16:48:07.082Z,4.70
2019-03-16T16:53:11.094Z,4.60
2019-03-16T16:58:14.795Z,4.60
2019-03-16T17:03:18.807Z,4.60
2019-03-16T17:08:22.507Z,4.50
2019-03-16T17:13:26.211Z,4.60
2019-03-16T17:18:29.993Z,4.60
2019-03-16T17:23:33.692Z,4.60
2019-03-16T17:28:45.211Z,4.60
2019-03-16T17:33:48.921Z,4.60
2019-03-16T17:38:52.659Z,4.60
2019-03-16T17:43:56.879Z,4.60
2019-03-16T17:49:00.601Z,4.70
2019-03-16T17:54:04.526Z,4.70
2019-03-16T17:59:08.399Z,4.80
2019-03-16T18:04:12.111Z,4.80
2019-03-16T18:09:15.822Z,4.80
2019-03-16T18:14:19.807Z,4.80
2019-03-16T18:19:23.520Z,4.90
2019-03-16T18:24:28.575Z,4.90
2019-03-16T18:29:32.278Z,4.90
2019-03-16T18:34:37.946Z,5.10
2019-03-16T18:39:41.992Z,5.10
2019-03-16T18:44:47.066Z,5.20
2019-03-16T18:49:50.900Z,5.20
2019-03-16T18:54:54.956Z,5.30
2019-03-16T18:59:59.020Z,5.50
2019-03-16T19:05:03.945Z,5.60
2019-03-16T19:10:09.039Z,5.70
2019-03-16T19:15:14.470Z,5.80
2019-03-16T19:20:18.637Z,5.90
2019-03-16T19:25:24.408Z,6.00
2019-03-16T19:30:28.476Z,6.10
2019-03-16T19:35:32.545Z,6.10
2019-03-16T19:40:36.322Z,6.20
2019-03-16T19:45:40.117Z,6.20
2019-03-16T19:50:44.003Z,6.30
2019-03-16T19:55:54.495Z,6.40
2019-03-16T20:00:58.218Z,6.50
2019-03-16T20:06:02.180Z,6.60
2019-03-16T20:11:07.215Z,6.80
2019-03-16T20:16:11.187Z,7.10
2019-03-16T20:21:14.881Z,7.20
2019-03-16T20:26:18.579Z,7.40
2019-03-16T20:31:23.238Z,7.40
2019-03-16T20:36:26.972Z,7.40
2019-03-16T20:41:35.934Z,7.50
2019-03-16T20:46:36.159Z,7.40
2019-03-16T20:51:39.936Z,7.40
2019-03-16T20:56:43.658Z,7.40
2019-03-16T21:01:47.475Z,7.40
2019-03-16T21:06:51.291Z,7.40
2019-03-16T21:11:55.029Z,7.50
2019-03-16T21:17:00.872Z,7.50
2019-03-16T21:22:04.909Z,7.50
2019-03-16T21:27:08.645Z,7.70
2019-03-16T21:32:12.707Z,7.70
2019-03-16T21:37:16.615Z,7.80
2019-03-16T21:42:20.608Z,7.90
2019-03-16T21:47:24.644Z,7.90
2019-03-16T21:52:28.375Z,7.90
2019-03-16T21:57:34.084Z,8.00
2019-03-16T22:02:38.933Z,8.00
2019-03-16T22:07:44.111Z,8.00
2019-03-16T22:12:47.959Z,8.00
2019-03-16T22:17:52.915Z,7.90
2019-03-16T22:22:58.124Z,7.90
2019-03-16T22:28:03.998Z,7.90
2019-03-16T22:33:09.934Z,7.90
2019-03-16T22:38:13.676Z,8.00
2019-03-16T22:43:17.403Z,8.00
2019-03-16T22:48:21.122Z,8.00
2019-03-16T22:53:24.843Z,8.10
2019-03-16T22:58:28.591Z,8.10
2019-03-16T23:03:32.366Z,8.10
2019-03-16T23:08:37.561Z,7.80
2019-03-16T23:13:47.561Z,8.20
2019-03-16T23:18:51.651Z,8.20
2019-03-16T23:23:55.976Z,8.20
2019-03-16T23:29:00.825Z,8.30
2019-03-16T23:34:04.530Z,8.40
2019-03-16T23:39:08.583Z,8.40
2019-03-16T23:44:12.311Z,8.40
2019-03-16T23:49:16.052Z,8.40
2019-03-16T23:54:19.907Z,8.40
2019-03-16T23:59:23.615Z,8.40
